createdAt,value
2016-03-19T00:00:20.642Z,1003.94
2016-03-19T00:01:20.645Z,1003.93
2016-03-19T00:02:20.662Z,1003.93
2016-03-19T00:03:20.681Z,1003.92
2016-03-19T00:04:20.684Z,1003.93
2016-03-19T00:05:20.702Z,1003.95
2016-03-19T00:06:20.720Z,1003.98
2016-03-19T00:07:20.738Z,1003.97
2016-03-19T00:08:20.741Z,1003.96
2016-03-19T00:09:20.760Z,1003.99
2016-03-19T00:10:20.778Z,1003.95
2016-03-19T00:11:20.780Z,1004.02
2016-03-19T00:12:20.799Z,1003.96
2016-03-19T00:13:20.817Z,1003.96
2016-03-19T00:14:20.835Z,1003.94
2016-03-19T00:15:20.838Z,1003.94
2016-03-19T00:16:20.857Z,1003.87
2016-03-19T00:17:20.874Z,1003.92
2016-03-19T00:18:20.894Z,1003.9
2016-03-19T00:19:20.896Z,1003.95
2016-03-19T00:20:20.915Z,1003.92
2016-03-19T00:21:20.932Z,1003.98
2016-03-19T00:22:20.935Z,1003.96
2016-03-19T00:23:20.969Z,1003.99
2016-03-19T00:24:20.972Z,1004.01
2016-03-19T00:25:20.974Z,1004.01
2016-03-19T00:26:20.993Z,1004
2016-03-19T00:27:21.012Z,1003.98
2016-03-19T00:28:21.014Z,1004
2016-03-19T00:29:21.032Z,1003.97
2016-03-19T00:30:21.051Z,1004.02
2016-03-19T00:31:21.070Z,1003.96
2016-03-19T00:32:21.072Z,1003.99
2016-03-19T00:33:21.090Z,1003.93
2016-03-19T00:34:21.109Z,1004
2016-03-19T00:35:21.126Z,1003.96
2016-03-19T00:36:21.129Z,1004.02
2016-03-19T00:37:21.147Z,1004
2016-03-19T00:38:21.167Z,1004.05
2016-03-19T00:39:21.169Z,1004.03
2016-03-19T00:40:21.187Z,1004.08
2016-03-19T00:41:21.189Z,1004.03
2016-03-19T00:42:21.224Z,1004.07
2016-03-19T00:43:21.226Z,1003.99
2016-03-19T00:44:21.245Z,1003.93
2016-03-19T00:45:21.248Z,1003.95
2016-03-19T00:46:21.266Z,1003.94
2016-03-19T00:47:21.284Z,1003.91
2016-03-19T00:48:21.302Z,1003.95
2016-03-19T00:49:21.321Z,1003.94
2016-03-19T00:50:21.324Z,1003.96
2016-03-19T00:51:21.342Z,1003.96
2016-03-19T00:52:21.360Z,1003.9
2016-03-19T00:53:21.363Z,1003.98
2016-03-19T00:54:21.382Z,1003.99
2016-03-19T00:55:21.384Z,1003.94
2016-03-19T00:56:21.402Z,1003.93
2016-03-19T00:57:21.421Z,1003.91
2016-03-19T00:58:21.438Z,1003.9
2016-03-19T00:59:21.441Z,1003.87
2016-03-19T01:00:21.460Z,1003.87
2016-03-19T01:01:21.478Z,1003.86
2016-03-19T01:02:21.481Z,1003.81
2016-03-19T01:03:21.498Z,1003.79
2016-03-19T01:04:21.518Z,1003.74
2016-03-19T01:05:21.536Z,1003.77
2016-03-19T01:06:21.554Z,1003.77
2016-03-19T01:07:21.557Z,1003.75
2016-03-19T01:08:21.566Z,1003.73
2016-03-19T01:09:21.574Z,1003.72
2016-03-19T01:10:21.568Z,1003.7
2016-03-19T01:11:21.577Z,1003.71
2016-03-19T01:12:21.586Z,1003.69
2016-03-19T01:13:21.584Z,1003.71
2016-03-19T01:14:21.598Z,1003.73
2016-03-19T01:15:21.614Z,1003.72
2016-03-19T01:16:21.629Z,1003.74
2016-03-19T01:17:21.628Z,1003.74
2016-03-19T01:18:21.644Z,1003.72
2016-03-19T01:19:21.646Z,1003.69
2016-03-19T01:20:21.678Z,1003.7
2016-03-19T01:21:21.680Z,1003.67
2016-03-19T01:22:21.698Z,1003.64
2016-03-19T01:23:21.700Z,1003.64
2016-03-19T01:24:21.718Z,1003.61
2016-03-19T01:25:21.736Z,1003.61
2016-03-19T01:26:21.738Z,1003.6
2016-03-19T01:27:21.756Z,1003.55
2016-03-19T01:28:21.775Z,1003.58
2016-03-19T01:29:21.793Z,1003.54
2016-03-19T01:30:21.796Z,1003.54
2016-03-19T01:31:21.814Z,1003.51
2016-03-19T01:32:21.831Z,1003.52
2016-03-19T01:33:21.834Z,1003.53
2016-03-19T01:34:21.853Z,1003.47
2016-03-19T01:35:21.887Z,1003.52
2016-03-19T01:36:21.875Z,1003.47
2016-03-19T01:37:21.892Z,1003.47
2016-03-19T01:38:21.911Z,1003.49
2016-03-19T01:39:21.929Z,1003.42
2016-03-19T01:40:21.932Z,1003.43
2016-03-19T01:41:21.950Z,1003.42
2016-03-19T01:42:21.968Z,1003.39
2016-03-19T01:43:21.971Z,1003.37
2016-03-19T01:44:21.988Z,1003.42
2016-03-19T01:45:22.008Z,1003.37
2016-03-19T01:46:22.026Z,1003.38
2016-03-19T01:47:22.029Z,1003.36
2016-03-19T01:48:22.047Z,1003.4
2016-03-19T01:49:22.065Z,1003.37
2016-03-19T01:50:22.068Z,1003.33
2016-03-19T01:51:22.086Z,1003.41
2016-03-19T01:52:22.105Z,1003.4
2016-03-19T01:53:22.123Z,1003.43
2016-03-19T01:54:22.126Z,1003.4
2016-03-19T01:55:22.143Z,1003.36
2016-03-19T01:56:22.162Z,1003.35
2016-03-19T01:57:22.181Z,1003.33
2016-03-19T01:58:22.183Z,1003.33
2016-03-19T01:59:22.202Z,1003.37
2016-03-19T02:00:22.220Z,1003.4
2016-03-19T02:01:22.223Z,1003.37
2016-03-19T02:02:22.241Z,1003.39
2016-03-19T02:03:22.259Z,1003.41
2016-03-19T02:04:22.262Z,1003.46
2016-03-19T02:05:22.281Z,1003.42
2016-03-19T02:06:22.298Z,1003.44
2016-03-19T02:07:22.300Z,1003.43
2016-03-19T02:08:22.320Z,1003.45
2016-03-19T02:09:22.338Z,1003.45
2016-03-19T02:10:22.341Z,1003.45
2016-03-19T02:11:22.359Z,1003.45
2016-03-19T02:12:22.377Z,1003.45
2016-03-19T02:13:22.380Z,1003.45
2016-03-19T02:14:22.398Z,1003.44
2016-03-19T02:15:22.417Z,1003.47
2016-03-19T02:16:22.435Z,1003.44
2016-03-19T02:17:22.437Z,1003.43
2016-03-19T02:18:22.455Z,1003.43
2016-03-19T02:19:22.474Z,1003.4
2016-03-19T02:20:22.492Z,1003.39
2016-03-19T02:21:22.495Z,1003.35
2016-03-19T02:22:22.513Z,1003.35
2016-03-19T02:23:22.532Z,1003.34
2016-03-19T02:24:22.534Z,1003.33
2016-03-19T02:25:22.553Z,1003.28
2016-03-19T02:26:22.571Z,1003.3
2016-03-19T02:27:22.574Z,1003.3
2016-03-19T02:28:22.607Z,1003.29
2016-03-19T02:29:22.609Z,1003.23
2016-03-19T02:30:22.612Z,1003.23
2016-03-19T02:31:22.631Z,1003.21
2016-03-19T02:32:22.650Z,1003.18
2016-03-19T02:33:22.668Z,1003.2
2016-03-19T02:34:22.671Z,1003.14
2016-03-19T02:35:22.689Z,1003.14
2016-03-19T02:36:22.707Z,1003.15
2016-03-19T02:37:22.710Z,1003.12
2016-03-19T02:38:22.728Z,1003.13
2016-03-19T02:39:22.747Z,1003.11
2016-03-19T02:40:22.764Z,1003.11
2016-03-19T02:41:22.767Z,1003.1
2016-03-19T02:42:22.786Z,1003.18
2016-03-19T02:43:22.789Z,1003.2
2016-03-19T02:44:22.807Z,1003.27
2016-03-19T02:45:22.825Z,1003.24
2016-03-19T02:46:22.844Z,1003.3
2016-03-19T02:47:22.862Z,1003.26
2016-03-19T02:48:22.865Z,1003.3
2016-03-19T02:49:22.883Z,1003.27
2016-03-19T02:50:22.886Z,1003.27
2016-03-19T02:51:22.904Z,1003.24
2016-03-19T02:52:22.921Z,1003.22
2016-03-19T02:53:22.987Z,1003.27
2016-03-19T02:54:22.959Z,1003.21
2016-03-19T02:55:22.962Z,1003.16
2016-03-19T02:56:22.979Z,1003.17
2016-03-19T02:57:22.998Z,1003.13
2016-03-19T02:58:23.001Z,1003.16
2016-03-19T02:59:23.019Z,1003.15
2016-03-19T03:00:23.038Z,1003.13
2016-03-19T03:01:23.056Z,1003.1
2016-03-19T03:02:23.059Z,1003.04
2016-03-19T03:03:23.076Z,1003.05
2016-03-19T03:04:23.095Z,1003.05
2016-03-19T03:05:23.098Z,1003.05
2016-03-19T03:06:23.116Z,1003.09
2016-03-19T03:07:23.134Z,1003.13
2016-03-19T03:08:23.137Z,1003.14
2016-03-19T03:09:23.155Z,1003.09
2016-03-19T03:10:23.158Z,1003.1
2016-03-19T03:11:23.177Z,1003.14
2016-03-19T03:12:23.195Z,1003.09
2016-03-19T03:13:23.213Z,1003.1
2016-03-19T03:14:23.230Z,1003.13
2016-03-19T03:15:23.233Z,1003.12
2016-03-19T03:16:23.252Z,1003.14
2016-03-19T03:17:23.255Z,1003.14
2016-03-19T03:18:23.288Z,1003.16
2016-03-19T03:19:23.292Z,1003.15
2016-03-19T03:20:23.310Z,1003.17
2016-03-19T03:21:23.328Z,1003.18
2016-03-19T03:22:23.331Z,1003.14
2016-03-19T03:23:23.349Z,1003.17
2016-03-19T03:24:23.368Z,1003.2
2016-03-19T03:25:23.385Z,1003.17
2016-03-19T03:26:23.388Z,1003.17
2016-03-19T03:27:23.407Z,1003.16
2016-03-19T03:28:23.425Z,1003.15
2016-03-19T03:29:23.428Z,1003.18
2016-03-19T03:30:23.446Z,1003.12
2016-03-19T03:31:23.465Z,1003.18
2016-03-19T03:32:23.468Z,1003.19
2016-03-19T03:33:23.486Z,1003.17
2016-03-19T03:34:23.504Z,1003.18
2016-03-19T03:35:23.522Z,1003.21
2016-03-19T03:36:23.525Z,1003.23
2016-03-19T03:37:23.543Z,1003.25
2016-03-19T03:38:23.562Z,1003.29
2016-03-19T03:39:23.580Z,1003.25
2016-03-19T03:40:23.583Z,1003.24
2016-03-19T03:41:23.586Z,1003.17
2016-03-19T03:42:23.604Z,1003.24
2016-03-19T03:43:23.622Z,1003.2
2016-03-19T03:44:23.640Z,1003.22
2016-03-19T03:45:23.658Z,1003.2
2016-03-19T03:46:23.661Z,1003.24
2016-03-19T03:47:23.679Z,1003.22
2016-03-19T03:48:23.697Z,1003.18
2016-03-19T03:49:23.715Z,1003.17
2016-03-19T03:50:23.719Z,1003.18
2016-03-19T03:51:23.737Z,1003.15
2016-03-19T03:52:23.740Z,1003.18
2016-03-19T03:53:23.758Z,1003.15
2016-03-19T03:54:23.776Z,1003.18
2016-03-19T03:55:23.779Z,1003.17
2016-03-19T03:56:23.797Z,1003.16
2016-03-19T03:57:23.816Z,1003.16
2016-03-19T03:58:23.818Z,1003.17
2016-03-19T03:59:23.851Z,1003.17
2016-03-19T04:00:23.854Z,1003.17
2016-03-19T04:01:23.873Z,1003.19
2016-03-19T04:02:23.892Z,1003.17
2016-03-19T04:03:23.894Z,1003.18
2016-03-19T04:04:23.913Z,1003.16
2016-03-19T04:05:23.931Z,1003.18
2016-03-19T04:06:23.933Z,1003.23
2016-03-19T04:07:23.952Z,1003.22
2016-03-19T04:08:23.970Z,1003.2
2016-03-19T04:09:23.973Z,1003.19
2016-03-19T04:10:23.991Z,1003.21
2016-03-19T04:11:24.009Z,1003.21
2016-03-19T04:12:24.011Z,1003.19
2016-03-19T04:13:24.031Z,1003.18
2016-03-19T04:14:24.049Z,1003.24
2016-03-19T04:15:24.067Z,1003.22
2016-03-19T04:16:24.070Z,1003.21
2016-03-19T04:17:24.088Z,1003.21
2016-03-19T04:18:24.107Z,1003.21
2016-03-19T04:19:24.125Z,1003.19
2016-03-19T04:20:24.128Z,1003.23
2016-03-19T04:21:24.146Z,1003.24
2016-03-19T04:22:24.163Z,1003.23
2016-03-19T04:23:24.166Z,1003.25
2016-03-19T04:24:24.185Z,1003.24
2016-03-19T04:25:24.203Z,1003.21
2016-03-19T04:26:24.207Z,1003.2
2016-03-19T04:27:24.224Z,1003.18
2016-03-19T04:28:24.243Z,1003.14
2016-03-19T04:29:24.261Z,1003.12
2016-03-19T04:30:24.264Z,1003.11
2016-03-19T04:31:24.282Z,1003.06
2016-03-19T04:32:24.300Z,1003.09
2016-03-19T04:33:24.303Z,1003.04
2016-03-19T04:34:24.336Z,1003.06
2016-03-19T04:35:24.340Z,1003.15
2016-03-19T04:36:24.342Z,1003.13
2016-03-19T04:37:24.361Z,1003.11
2016-03-19T04:38:24.379Z,1003.07
2016-03-19T04:39:24.397Z,1003.1
2016-03-19T04:40:24.400Z,1003.09
2016-03-19T04:41:24.418Z,1003.08
2016-03-19T04:42:24.437Z,1003.09
2016-03-19T04:43:24.439Z,1003.08
2016-03-19T04:44:24.458Z,1003.07
2016-03-19T04:45:24.475Z,1003.05
2016-03-19T04:46:24.494Z,1003.03
2016-03-19T04:47:24.497Z,1003.06
2016-03-19T04:48:24.515Z,1003.08
2016-03-19T04:49:24.534Z,1003.06
2016-03-19T04:50:24.536Z,1003.06
2016-03-19T04:51:24.555Z,1003.08
2016-03-19T04:52:24.573Z,1003.08
2016-03-19T04:53:24.591Z,1003.12
2016-03-19T04:54:24.594Z,1003.11
2016-03-19T04:55:24.612Z,1003.09
2016-03-19T04:56:24.615Z,1003.15
2016-03-19T04:57:24.649Z,1003.08
2016-03-19T04:58:24.651Z,1003.08
2016-03-19T04:59:24.670Z,1003.07
2016-03-19T05:00:24.688Z,1003.08
2016-03-19T05:01:24.691Z,1003.1
2016-03-19T05:02:24.710Z,1003.1
2016-03-19T05:03:24.728Z,1003.11
2016-03-19T05:04:24.730Z,1003.1
2016-03-19T05:05:24.749Z,1003.11
2016-03-19T05:06:24.767Z,1003.15
2016-03-19T05:07:24.784Z,1003.17
2016-03-19T05:08:24.787Z,1003.16
2016-03-19T05:09:24.806Z,1003.18
2016-03-19T05:10:24.825Z,1003.21
2016-03-19T05:11:24.827Z,1003.22
2016-03-19T05:12:24.846Z,1003.23
2016-03-19T05:13:24.864Z,1003.22
2016-03-19T05:14:24.867Z,1003.24
2016-03-19T05:15:24.885Z,1003.22
2016-03-19T05:16:24.903Z,1003.23
2016-03-19T05:17:24.921Z,1003.24
2016-03-19T05:18:24.924Z,1003.24
2016-03-19T05:19:24.941Z,1003.26
2016-03-19T05:20:24.945Z,1003.24
2016-03-19T05:21:24.979Z,1003.3
2016-03-19T05:22:24.982Z,1003.28
2016-03-19T05:23:24.999Z,1003.3
2016-03-19T05:24:25.019Z,1003.28
2016-03-19T05:25:25.021Z,1003.26
2016-03-19T05:26:25.039Z,1003.35
2016-03-19T05:27:25.043Z,1003.27
2016-03-19T05:28:25.060Z,1003.32
2016-03-19T05:29:25.094Z,1003.28
2016-03-19T05:30:25.096Z,1003.35
2016-03-19T05:31:25.099Z,1003.31
2016-03-19T05:32:25.118Z,1003.31
2016-03-19T05:33:25.136Z,1003.38
2016-03-19T05:34:25.140Z,1003.4
2016-03-19T05:35:25.157Z,1003.4
2016-03-19T05:36:25.176Z,1003.42
2016-03-19T05:37:25.178Z,1003.43
2016-03-19T05:38:25.197Z,1003.44
2016-03-19T05:39:25.215Z,1003.45
2016-03-19T05:40:25.233Z,1003.43
2016-03-19T05:41:25.236Z,1003.43
2016-03-19T05:42:25.253Z,1003.45
2016-03-19T05:43:25.289Z,1003.48
2016-03-19T05:44:25.275Z,1003.47
2016-03-19T05:45:25.294Z,1003.43
2016-03-19T05:46:25.312Z,1003.48
2016-03-19T05:47:25.346Z,1003.5
2016-03-19T05:48:25.333Z,1003.43
2016-03-19T05:49:25.351Z,1003.48
2016-03-19T05:50:25.370Z,1003.5
2016-03-19T05:51:25.372Z,1003.48
2016-03-19T05:52:25.391Z,1003.49
2016-03-19T05:53:25.408Z,1003.45
2016-03-19T05:54:25.427Z,1003.45
2016-03-19T05:55:25.430Z,1003.47
2016-03-19T05:56:25.448Z,1003.48
2016-03-19T05:57:25.466Z,1003.49
2016-03-19T05:58:25.469Z,1003.46
2016-03-19T05:59:25.488Z,1003.48
2016-03-19T06:00:25.506Z,1003.52
2016-03-19T06:01:25.508Z,1003.46
2016-03-19T06:02:25.527Z,1003.48
2016-03-19T06:03:25.545Z,1003.54
2016-03-19T06:04:25.563Z,1003.59
2016-03-19T06:05:25.565Z,1003.52
2016-03-19T06:06:25.584Z,1003.52
2016-03-19T06:07:25.603Z,1003.52
2016-03-19T06:08:25.605Z,1003.53
2016-03-19T06:09:25.624Z,1003.62
2016-03-19T06:10:25.642Z,1003.59
2016-03-19T06:11:25.660Z,1003.57
2016-03-19T06:12:25.679Z,1003.59
2016-03-19T06:13:25.681Z,1003.57
2016-03-19T06:14:25.700Z,1003.57
2016-03-19T06:15:25.717Z,1003.59
2016-03-19T06:16:25.720Z,1003.61
2016-03-19T06:17:25.739Z,1003.64
2016-03-19T06:18:25.741Z,1003.61
2016-03-19T06:19:25.760Z,1003.64
2016-03-19T06:20:25.778Z,1003.63
2016-03-19T06:21:25.797Z,1003.66
2016-03-19T06:22:25.799Z,1003.69
2016-03-19T06:23:25.818Z,1003.67
2016-03-19T06:24:25.835Z,1003.73
2016-03-19T06:25:25.839Z,1003.7
2016-03-19T06:26:25.857Z,1003.71
2016-03-19T06:27:25.874Z,1003.7
2016-03-19T06:28:25.877Z,1003.74
2016-03-19T06:29:25.896Z,1003.73
2016-03-19T06:30:25.915Z,1003.69
2016-03-19T06:31:25.920Z,1003.74
2016-03-19T06:32:25.938Z,1003.72
2016-03-19T06:33:25.957Z,1003.74
2016-03-19T06:34:25.975Z,1003.77
2016-03-19T06:35:25.978Z,1003.76
2016-03-19T06:36:25.996Z,1003.73
2016-03-19T06:37:26.014Z,1003.79
2016-03-19T06:38:26.032Z,1003.77
2016-03-19T06:39:26.034Z,1003.79
2016-03-19T06:40:26.054Z,1003.82
2016-03-19T06:41:26.072Z,1003.79
2016-03-19T06:42:26.075Z,1003.84
2016-03-19T06:43:26.093Z,1003.81
2016-03-19T06:44:26.111Z,1003.83
2016-03-19T06:45:26.130Z,1003.84
2016-03-19T06:46:26.132Z,1003.84
2016-03-19T06:47:26.151Z,1003.87
2016-03-19T06:48:26.169Z,1003.89
2016-03-19T06:49:26.172Z,1003.89
2016-03-19T06:50:26.189Z,1003.88
2016-03-19T06:51:26.208Z,1003.89
2016-03-19T06:52:26.211Z,1003.93
2016-03-19T06:53:26.229Z,1003.88
2016-03-19T06:54:26.247Z,1003.9
2016-03-19T06:55:26.266Z,1003.95
2016-03-19T06:56:26.284Z,1003.91
2016-03-19T06:57:26.287Z,1003.95
2016-03-19T06:58:26.305Z,1003.94
2016-03-19T06:59:26.324Z,1003.98
2016-03-19T07:00:26.341Z,1004
2016-03-19T07:01:26.344Z,1003.96
2016-03-19T07:02:26.362Z,1003.99
2016-03-19T07:03:26.366Z,1003.98
2016-03-19T07:04:26.384Z,1003.99
2016-03-19T07:05:26.402Z,1003.99
2016-03-19T07:06:26.421Z,1003.98
2016-03-19T07:07:26.439Z,1003.98
2016-03-19T07:08:26.442Z,1004
2016-03-19T07:09:26.460Z,1003.98
2016-03-19T07:10:26.478Z,1003.99
2016-03-19T07:11:26.481Z,1003.99
2016-03-19T07:12:26.498Z,1004.03
2016-03-19T07:13:26.517Z,1004.04
2016-03-19T07:14:26.520Z,1004.05
2016-03-19T07:15:26.538Z,1004.07
2016-03-19T07:16:26.557Z,1004.06
2016-03-19T07:17:26.559Z,1004.08
2016-03-19T07:18:26.578Z,1004.13
2016-03-19T07:19:26.596Z,1004.14
2016-03-19T07:20:26.599Z,1004.1
2016-03-19T07:21:26.633Z,1004.1
2016-03-19T07:22:26.636Z,1004.09
2016-03-19T07:23:26.653Z,1004.09
2016-03-19T07:24:26.672Z,1004.12
2016-03-19T07:25:26.691Z,1004.13
2016-03-19T07:26:26.693Z,1004.15
2016-03-19T07:27:26.711Z,1004.19
2016-03-19T07:28:26.730Z,1004.17
2016-03-19T07:29:26.733Z,1004.21
2016-03-19T07:30:26.751Z,1004.19
2016-03-19T07:31:26.769Z,1004.16
2016-03-19T07:32:26.772Z,1004.22
2016-03-19T07:33:26.790Z,1004.17
2016-03-19T07:34:26.808Z,1004.2
2016-03-19T07:35:26.827Z,1004.21
2016-03-19T07:36:26.829Z,1004.19
2016-03-19T07:37:26.848Z,1004.22
2016-03-19T07:38:26.866Z,1004.25
2016-03-19T07:39:26.884Z,1004.22
2016-03-19T07:40:26.887Z,1004.19
2016-03-19T07:41:26.905Z,1004.24
2016-03-19T07:42:26.924Z,1004.23
2016-03-19T07:43:26.926Z,1004.21
2016-03-19T07:44:26.945Z,1004.23
2016-03-19T07:45:26.962Z,1004.24
2016-03-19T07:46:26.965Z,1004.28
2016-03-19T07:47:26.984Z,1004.28
2016-03-19T07:48:27.002Z,1004.27
2016-03-19T07:49:27.005Z,1004.29
2016-03-19T07:50:27.023Z,1004.33
2016-03-19T07:51:27.042Z,1004.27
2016-03-19T07:52:27.044Z,1004.37
2016-03-19T07:53:27.078Z,1004.34
2016-03-19T07:54:27.096Z,1004.34
2016-03-19T07:55:27.099Z,1004.33
2016-03-19T07:56:27.116Z,1004.38
2016-03-19T07:57:27.119Z,1004.34
2016-03-19T07:58:27.138Z,1004.36
2016-03-19T07:59:27.157Z,1004.42
2016-03-19T08:00:27.174Z,1004.46
2016-03-19T08:01:27.177Z,1004.42
2016-03-19T08:02:27.196Z,1004.39
2016-03-19T08:03:27.214Z,1004.4
2016-03-19T08:04:27.233Z,1004.49
2016-03-19T08:05:27.235Z,1004.45
2016-03-19T08:06:27.254Z,1004.49
2016-03-19T08:07:27.256Z,1004.49
2016-03-19T08:08:27.290Z,1004.42
2016-03-19T08:09:27.292Z,1004.45
2016-03-19T08:10:27.311Z,1004.44
2016-03-19T08:11:27.329Z,1004.43
2016-03-19T08:12:27.332Z,1004.44
2016-03-19T08:13:27.351Z,1004.46
2016-03-19T08:14:27.370Z,1004.45
2016-03-19T08:15:27.387Z,1004.46
2016-03-19T08:16:27.390Z,1004.43
2016-03-19T08:17:27.408Z,1004.42
2016-03-19T08:18:27.426Z,1004.43
2016-03-19T08:19:27.445Z,1004.43
2016-03-19T08:20:27.464Z,1004.45
2016-03-19T08:21:27.466Z,1004.44
2016-03-19T08:22:27.469Z,1004.46
2016-03-19T08:23:27.503Z,1004.46
2016-03-19T08:24:27.505Z,1004.46
2016-03-19T08:25:27.524Z,1004.49
2016-03-19T08:26:27.542Z,1004.44
2016-03-19T08:27:27.545Z,1004.44
2016-03-19T08:28:27.578Z,1004.46
2016-03-19T08:29:27.580Z,1004.43
2016-03-19T08:30:27.583Z,1004.43
2016-03-19T08:31:27.602Z,1004.49
2016-03-19T08:32:27.621Z,1004.45
2016-03-19T08:33:27.624Z,1004.46
2016-03-19T08:34:27.642Z,1004.46
2016-03-19T08:35:27.660Z,1004.47
2016-03-19T08:36:27.678Z,1004.47
2016-03-19T08:37:27.681Z,1004.46
2016-03-19T08:38:27.699Z,1004.46
2016-03-19T08:39:27.717Z,1004.46
2016-03-19T08:40:27.720Z,1004.43
2016-03-19T08:41:27.754Z,1004.42
2016-03-19T08:42:27.757Z,1004.42
2016-03-19T08:43:27.775Z,1004.42
2016-03-19T08:44:27.793Z,1004.44
2016-03-19T08:45:27.796Z,1004.39
2016-03-19T08:46:27.814Z,1004.47
2016-03-19T08:47:27.833Z,1004.46
2016-03-19T08:48:27.850Z,1004.49
2016-03-19T08:49:27.854Z,1004.51
2016-03-19T08:50:27.872Z,1004.54
2016-03-19T08:51:27.905Z,1004.53
2016-03-19T08:52:27.909Z,1004.51
2016-03-19T08:53:27.911Z,1004.57
2016-03-19T08:54:27.930Z,1004.55
2016-03-19T08:55:27.932Z,1004.56
2016-03-19T08:56:27.967Z,1004.57
2016-03-19T08:57:27.969Z,1004.58
2016-03-19T08:58:27.987Z,1004.63
2016-03-19T08:59:27.991Z,1004.63
2016-03-19T09:00:28.008Z,1004.6
2016-03-19T09:01:28.027Z,1004.63
2016-03-19T09:02:28.044Z,1004.63
2016-03-19T09:03:28.063Z,1004.65
2016-03-19T09:04:28.066Z,1004.65
2016-03-19T09:05:28.084Z,1004.7
2016-03-19T09:06:28.103Z,1004.66
2016-03-19T09:07:28.121Z,1004.71
2016-03-19T09:08:28.124Z,1004.67
2016-03-19T09:09:28.142Z,1004.68
2016-03-19T09:10:28.160Z,1004.68
2016-03-19T09:11:28.178Z,1004.69
2016-03-19T09:12:28.181Z,1004.67
2016-03-19T09:13:28.198Z,1004.68
2016-03-19T09:14:28.218Z,1004.71
2016-03-19T09:15:28.236Z,1004.69
2016-03-19T09:16:28.239Z,1004.7
2016-03-19T09:17:28.257Z,1004.71
2016-03-19T09:18:28.275Z,1004.75
2016-03-19T09:19:28.294Z,1004.71
2016-03-19T09:20:28.311Z,1004.75
2016-03-19T09:21:28.315Z,1004.73
2016-03-19T09:22:28.317Z,1004.73
2016-03-19T09:23:28.336Z,1004.74
2016-03-19T09:24:28.353Z,1004.76
2016-03-19T09:25:28.372Z,1004.75
2016-03-19T09:26:28.375Z,1004.75
2016-03-19T09:27:28.393Z,1004.76
2016-03-19T09:28:28.411Z,1004.76
2016-03-19T09:29:28.430Z,1004.73
2016-03-19T09:30:28.433Z,1004.76
2016-03-19T09:31:28.451Z,1004.73
2016-03-19T09:32:28.469Z,1004.77
2016-03-19T09:33:28.488Z,1004.75
2016-03-19T09:34:28.490Z,1004.75
2016-03-19T09:35:28.508Z,1004.76
2016-03-19T09:36:28.543Z,1004.77
2016-03-19T09:37:28.530Z,1004.76
2016-03-19T09:38:28.548Z,1004.78
2016-03-19T09:39:28.566Z,1004.81
2016-03-19T09:40:28.585Z,1004.8
2016-03-19T09:41:28.587Z,1004.76
2016-03-19T09:42:28.606Z,1004.78
2016-03-19T09:43:28.624Z,1004.72
2016-03-19T09:44:28.642Z,1004.78
2016-03-19T09:45:28.645Z,1004.73
2016-03-19T09:46:28.662Z,1004.74
2016-03-19T09:47:28.682Z,1004.81
2016-03-19T09:48:28.684Z,1004.78
2016-03-19T09:49:28.703Z,1004.84
2016-03-19T09:50:28.721Z,1004.85
2016-03-19T09:51:28.739Z,1004.86
2016-03-19T09:52:28.742Z,1004.88
2016-03-19T09:53:28.760Z,1004.85
2016-03-19T09:54:28.778Z,1004.89
2016-03-19T09:55:28.797Z,1004.88
2016-03-19T09:56:28.799Z,1004.88
2016-03-19T09:57:28.817Z,1004.89
2016-03-19T09:58:28.836Z,1004.85
2016-03-19T09:59:28.839Z,1004.87
2016-03-19T10:00:28.858Z,1004.86
2016-03-19T10:01:28.875Z,1004.9
2016-03-19T10:02:28.894Z,1004.92
2016-03-19T10:03:28.896Z,1004.92
2016-03-19T10:04:28.915Z,1004.9
2016-03-19T10:05:28.933Z,1004.93
2016-03-19T10:06:28.952Z,1004.95
2016-03-19T10:07:28.954Z,1004.98
2016-03-19T10:08:28.972Z,1004.97
2016-03-19T10:09:28.990Z,1004.91
2016-03-19T10:10:28.993Z,1004.9
2016-03-19T10:11:29.012Z,1004.91
2016-03-19T10:12:29.030Z,1004.91
2016-03-19T10:13:29.033Z,1004.88
2016-03-19T10:14:29.037Z,1004.91
2016-03-19T10:15:29.040Z,1004.92
2016-03-19T10:16:29.042Z,1004.91
2016-03-19T10:17:29.045Z,1004.89
2016-03-19T10:18:29.031Z,1004.9
2016-03-19T10:19:29.043Z,1004.84
2016-03-19T10:20:29.056Z,1004.84
2016-03-19T10:21:29.054Z,1004.85
2016-03-19T10:22:29.067Z,1004.82
2016-03-19T10:23:29.079Z,1004.82
2016-03-19T10:24:29.095Z,1004.79
2016-03-19T10:25:29.112Z,1004.82
2016-03-19T10:26:29.113Z,1004.82
2016-03-19T10:27:29.129Z,1004.8
2016-03-19T10:28:29.130Z,1004.81
2016-03-19T10:29:29.147Z,1004.75
2016-03-19T10:30:29.164Z,1004.78
2016-03-19T10:31:29.182Z,1004.79
2016-03-19T10:32:29.184Z,1004.79
2016-03-19T10:33:29.202Z,1004.78
2016-03-19T10:34:29.220Z,1004.77
2016-03-19T10:35:29.238Z,1004.71
2016-03-19T10:36:29.240Z,1004.71
2016-03-19T10:37:29.258Z,1004.74
2016-03-19T10:38:29.276Z,1004.71
2016-03-19T10:39:29.294Z,1004.72
2016-03-19T10:40:29.297Z,1004.73
2016-03-19T10:41:29.314Z,1004.7
2016-03-19T10:42:29.333Z,1004.7
2016-03-19T10:43:29.352Z,1004.73
2016-03-19T10:44:29.355Z,1004.72
2016-03-19T10:45:29.373Z,1004.71
2016-03-19T10:46:29.391Z,1004.71
2016-03-19T10:47:29.410Z,1004.75
2016-03-19T10:48:29.427Z,1004.72
2016-03-19T10:49:29.430Z,1004.7
2016-03-19T10:50:29.449Z,1004.69
2016-03-19T10:51:29.466Z,1004.73
2016-03-19T10:52:29.469Z,1004.72
2016-03-19T10:53:29.488Z,1004.74
2016-03-19T10:54:29.507Z,1004.74
2016-03-19T10:55:29.525Z,1004.75
2016-03-19T10:56:29.527Z,1004.78
2016-03-19T10:57:29.546Z,1004.82
2016-03-19T10:58:29.564Z,1004.78
2016-03-19T10:59:29.582Z,1004.78
2016-03-19T11:00:29.585Z,1004.76
2016-03-19T11:01:29.603Z,1004.78
2016-03-19T11:02:29.621Z,1004.82
2016-03-19T11:03:29.624Z,1004.82
2016-03-19T11:04:29.658Z,1004.79
2016-03-19T11:05:29.661Z,1004.83
2016-03-19T11:06:29.679Z,1004.83
2016-03-19T11:07:29.697Z,1004.85
2016-03-19T11:08:29.700Z,1004.87
2016-03-19T11:09:29.719Z,1004.87
2016-03-19T11:10:29.737Z,1004.86
2016-03-19T11:11:29.755Z,1004.86
2016-03-19T11:12:29.758Z,1004.84
2016-03-19T11:13:29.792Z,1004.88
2016-03-19T11:14:29.794Z,1004.86
2016-03-19T11:15:29.813Z,1004.85
2016-03-19T11:16:29.831Z,1004.89
2016-03-19T11:17:29.849Z,1004.88
2016-03-19T11:18:29.852Z,1004.88
2016-03-19T11:19:29.870Z,1004.81
2016-03-19T11:20:29.889Z,1004.85
2016-03-19T11:21:29.891Z,1004.83
2016-03-19T11:22:29.910Z,1004.83
2016-03-19T11:23:29.927Z,1004.79
2016-03-19T11:24:29.946Z,1004.79
2016-03-19T11:25:29.949Z,1004.83
2016-03-19T11:26:29.967Z,1004.79
2016-03-19T11:27:29.986Z,1004.82
2016-03-19T11:28:30.004Z,1004.81
2016-03-19T11:29:30.007Z,1004.8
2016-03-19T11:30:30.056Z,1004.81
2016-03-19T11:31:30.090Z,1004.76
2016-03-19T11:32:30.108Z,1004.79
2016-03-19T11:33:30.111Z,1004.78
2016-03-19T11:34:30.129Z,1004.75
2016-03-19T11:35:30.132Z,1004.77
2016-03-19T11:36:30.135Z,1004.78
2016-03-19T11:37:30.138Z,1004.79
2016-03-19T11:38:30.140Z,1004.77
2016-03-19T11:39:30.159Z,1004.78
2016-03-19T11:40:30.177Z,1004.76
2016-03-19T11:41:30.180Z,1004.79
2016-03-19T11:42:30.197Z,1004.77
2016-03-19T11:43:30.216Z,1004.77
2016-03-19T11:44:30.233Z,1004.77
2016-03-19T11:45:30.236Z,1004.77
2016-03-19T11:46:30.256Z,1004.83
2016-03-19T11:47:30.274Z,1004.8
2016-03-19T11:48:30.292Z,1004.83
2016-03-19T11:49:30.295Z,1004.83
2016-03-19T11:50:30.329Z,1004.85
2016-03-19T11:51:30.331Z,1004.82
2016-03-19T11:52:30.350Z,1004.82
2016-03-19T11:53:30.352Z,1004.81
2016-03-19T11:54:30.371Z,1004.79
2016-03-19T11:55:30.388Z,1004.8
2016-03-19T11:56:30.407Z,1004.79
2016-03-19T11:57:30.410Z,1004.78
2016-03-19T11:58:30.428Z,1004.76
2016-03-19T11:59:30.446Z,1004.69
2016-03-19T12:00:30.449Z,1004.7
2016-03-19T12:01:30.483Z,1004.73
2016-03-19T12:02:30.502Z,1004.74
2016-03-19T12:03:30.504Z,1004.78
2016-03-19T12:04:30.523Z,1004.76
2016-03-19T12:05:30.540Z,1004.72
2016-03-19T12:06:30.559Z,1004.74
2016-03-19T12:07:30.562Z,1004.71
2016-03-19T12:08:30.580Z,1004.76